Orto / Ocaso: 05:02 / 19:24 UTC (Datos para LEAX 24-05-2019)

[fuente: ADDS]

METAR:


LEMG 241730Z 31010KT 250V350 CAVOK 32/04 Q1008 NOSIG =
TAF LEMG 241700Z 2418/2518 31008KT 9999 FEW010 TX29/2418Z TN16/2505Z BECMG 2421/2423 09014KT PROB40 TEMPO 2422/2424 09020G32KT BECMG 2501/2504 29004KT BECMG 2508/2510 13009KT LEGR 241730Z 36011KT 310V040 9999 FEW050 28/05 Q1011 =
TAF LEGR 241400Z 2415/2515 28010KT 9999 FEW060 TX30/2415Z TN10/2505Z BECMG 2416/2418 34010KT PROB30 TEMPO 2420/2422 06010KT BECMG 2422/2424 VRB02KT LEZL 241730Z 22013KT CAVOK 29/11 Q1009 NOSIG =
TAF LEZL 241400Z 2415/2515 32004KT CAVOK TX33/2415Z TN16/2506Z BECMG 2416/2419 19010KT BECMG 2423/2502 05009KT LEAM 241730Z 07015KT 9999 FEW020 23/15 Q1010 =
TAF LEAM 241400Z 2415/2515 15008KT 9999 FEW060 TX24/2510Z TN16/2505Z BECMG 2417/2420 07016KT PROB40 TEMPO 2420/2424 07020G30KT BECMG 2501/2504 35006KT BECMG 2507/2509 08010KT BECMG 2509/2511 17012KT LEBA 241730Z 32002KT CAVOK 31/05 Q1008 =
TAF LEBA 241700Z 2418/2503 35008KT CAVOK BECMG 2420/2422 06010KT LEJR 241800Z 22011KT 190V250 CAVOK 24/10 Q1011 =
TAF LEJR 241700Z 2418/2518 22010KT CAVOK TX31/2515Z TN14/2505Z BECMG 2419/2422 16008KT BECMG 2509/2512 02010KT BECMG 2514/2517 23010KT GEML 241730Z 28008KT 230V330 CAVOK 25/11 Q1010 =
TAF GEML 241400Z 2415/2515 27010KT 9999 FEW015 TX27/2415Z TN17/2504Z PROB40 TEMPO 2416/2421 27015G25KT BECMG 2500/2503 07006KT TEMPO 2502/2509 BKN010 PROB30 TEMPO 2503/2507 4000 BR BKN005 LXGB 241750Z 21010KT CAVOK 22/14 Q1010 NOSIG =
TAF LXGB 241631Z 2418/2422 26015KT CAVOK

TAFOR:


TAF LEMG 241700Z 2418/2518 31008KT 9999 FEW010 TX29/2418Z TN16/2505Z BECMG 2421/2423 09014KT PROB40 TEMPO 2422/2424 09020G32KT BECMG 2501/2504 29004KT BECMG 2508/2510 13009KT =
TAF LEGR 241400Z 2415/2515 28010KT 9999 FEW060 TX30/2415Z TN10/2505Z BECMG 2416/2418 34010KT PROB30 TEMPO 2420/2422 06010KT BECMG 2422/2424 VRB02KT =
TAF LEZL 241400Z 2415/2515 32004KT CAVOK TX33/2415Z TN16/2506Z BECMG 2416/2419 19010KT BECMG 2423/2502 05009KT =
TAF LEAM 241400Z 2415/2515 15008KT 9999 FEW060 TX24/2510Z TN16/2505Z BECMG 2417/2420 07016KT PROB40 TEMPO 2420/2424 07020G30KT BECMG 2501/2504 35006KT BECMG 2507/2509 08010KT BECMG 2509/2511 17012KT =
TAF LEBA 241700Z 2418/2503 35008KT CAVOK BECMG 2420/2422 06010KT =
TAF LEJR 241700Z 2418/2518 22010KT CAVOK TX31/2515Z TN14/2505Z BECMG 2419/2422 16008KT BECMG 2509/2512 02010KT BECMG 2514/2517 23010KT =
TAF GEML 241400Z 2415/2515 27010KT 9999 FEW015 TX27/2415Z TN17/2504Z PROB40 TEMPO 2416/2421 27015G25KT BECMG 2500/2503 07006KT TEMPO 2502/2509 BKN010 PROB30 TEMPO 2503/2507 4000 BR BKN005 =
TAF LXGB 241631Z 2418/2422 26015KT CAVOK =

Recuerde que, aunque regularmente actualizada, la información meteorológica aquí presentada no debe ser utilizada para la planificación de vuelos. Si lo desea, puede consultar la información meteorológica adecuada, tanto de aeródromos como en ruta, por las vías oficialmente establecidas en la legislación -> AQUí